sensor_id;sensor_type;location;lat;lon;timestamp;P1;durP1;ratioP1;P2;durP2;ratioP2
27201;SDS011;14717;46.924;15.474;2024-01-15T00:02:07;56.75;;;19.45;;
27201;SDS011;14717;46.924;15.474;2024-01-15T00:04:36;53.75;;;19.42;;
27201;SDS011;14717;46.924;15.474;2024-01-15T00:07:05;59.75;;;19.45;;
27201;SDS011;14717;46.924;15.474;2024-01-15T00:09:31;59.55;;;19.67;;
27201;SDS011;14717;46.924;15.474;2024-01-15T00:11:57;53.80;;;19.10;;
27201;SDS011;14717;46.924;15.474;2024-01-15T00:14:22;53.13;;;19.50;;
27201;SDS011;14717;46.924;15.474;2024-01-15T00:16:48;53.70;;;18.73;;
27201;SDS011;14717;46.924;15.474;2024-01-15T00:19:16;58.53;;;20.50;;
27201;SDS011;14717;46.924;15.474;2024-01-15T00:21:41;107.47;;;21.30;;
27201;SDS011;14717;46.924;15.474;2024-01-15T00:24:07;85.18;;;21.10;;
27201;SDS011;14717;46.924;15.474;2024-01-15T00:26:33;58.50;;;18.80;;
27201;SDS011;14717;46.924;15.474;2024-01-15T00:28:58;60.83;;;19.58;;
27201;SDS011;14717;46.924;15.474;2024-01-15T00:31:23;51.13;;;19.85;;
27201;SDS011;14717;46.924;15.474;2024-01-15T00:33:49;54.35;;;18.88;;
27201;SDS011;14717;46.924;15.474;2024-01-15T00:36:14;48.65;;;17.48;;
27201;SDS011;14717;46.924;15.474;2024-01-15T00:38:41;45.75;;;17.67;;
27201;SDS011;14717;46.924;15.474;2024-01-15T00:41:07;52.65;;;17.83;;
27201;SDS011;14717;46.924;15.474;2024-01-15T00:43:32;78.22;;;21.50;;
27201;SDS011;14717;46.924;15.474;2024-01-15T00:45:58;51.08;;;20.02;;
27201;SDS011;14717;46.924;15.474;2024-01-15T00:48:23;52.13;;;18.67;;
27201;SDS011;14717;46.924;15.474;2024-01-15T00:50:48;56.47;;;18.73;;
27201;SDS011;14717;46.924;15.474;2024-01-15T00:53:14;57.08;;;19.80;;
27201;SDS011;14717;46.924;15.474;2024-01-15T00:55:39;70.82;;;18.98;;
27201;SDS011;14717;46.924;15.474;2024-01-15T00:58:05;72.85;;;19.77;;
27201;SDS011;14717;46.924;15.474;2024-01-15T01:00:30;48.08;;;18.48;;
27201;SDS011;14717;46.924;15.474;2024-01-15T01:02:55;51.35;;;18.70;;
27201;SDS011;14717;46.924;15.474;2024-01-15T01:05:21;51.80;;;17.33;;
27201;SDS011;14717;46.924;15.474;2024-01-15T01:07:46;56.13;;;15.90;;
27201;SDS011;14717;46.924;15.474;2024-01-15T01:10:11;48.20;;;17.02;;
27201;SDS011;14717;46.924;15.474;2024-01-15T01:12:37;55.50;;;16.45;;
27201;SDS011;14717;46.924;15.474;2024-01-15T01:15:02;110.47;;;20.60;;
27201;SDS011;14717;46.924;15.474;2024-01-15T01:17:28;79.57;;;18.77;;
27201;SDS011;14717;46.924;15.474;2024-01-15T01:19:53;53.97;;;18.45;;
27201;SDS011;14717;46.924;15.474;2024-01-15T01:22:19;112.75;;;22.15;;
27201;SDS011;14717;46.924;15.474;2024-01-15T01:24:44;57.40;;;18.70;;
27201;SDS011;14717;46.924;15.474;2024-01-15T01:27:09;52.60;;;16.70;;
27201;SDS011;14717;46.924;15.474;2024-01-15T01:29:35;49.00;;;17.70;;
27201;SDS011;14717;46.924;15.474;2024-01-15T01:32:00;54.35;;;18.00;;
27201;SDS011;14717;46.924;15.474;2024-01-15T01:34:25;54.67;;;18.13;;
27201;SDS011;14717;46.924;15.474;2024-01-15T01:36:51;148.50;;;25.63;;
27201;SDS011;14717;46.924;15.474;2024-01-15T01:39:16;90.10;;;19.52;;
27201;SDS011;14717;46.924;15.474;2024-01-15T01:41:42;70.70;;;21.33;;
27201;SDS011;14717;46.924;15.474;2024-01-15T01:44:08;48.78;;;16.92;;
27201;SDS011;14717;46.924;15.474;2024-01-15T01:46:33;52.80;;;18.65;;
27201;SDS011;14717;46.924;15.474;2024-01-15T01:49:04;48.35;;;17.20;;
27201;SDS011;14717;46.924;15.474;2024-01-15T01:51:31;44.88;;;16.67;;
27201;SDS011;14717;46.924;15.474;2024-01-15T01:53:58;51.08;;;18.67;;
27201;SDS011;14717;46.924;15.474;2024-01-15T01:56:23;55.42;;;18.15;;
27201;SDS011;14717;46.924;15.474;2024-01-15T01:58:49;51.55;;;16.92;;
27201;SDS011;14717;46.924;15.474;2024-01-15T02:01:15;64.88;;;20.88;;
27201;SDS011;14717;46.924;15.474;2024-01-15T02:03:40;51.40;;;18.52;;
27201;SDS011;14717;46.924;15.474;2024-01-15T02:06:06;66.85;;;19.30;;
27201;SDS011;14717;46.924;15.474;2024-01-15T02:08:32;65.38;;;18.40;;
27201;SDS011;14717;46.924;15.474;2024-01-15T02:10:57;62.28;;;18.80;;
27201;SDS011;14717;46.924;15.474;2024-01-15T02:13:23;54.88;;;17.98;;
27201;SDS011;14717;46.924;15.474;2024-01-15T02:15:48;63.65;;;19.35;;
27201;SDS011;14717;46.924;15.474;2024-01-15T02:18:13;52.22;;;18.08;;
27201;SDS011;14717;46.924;15.474;2024-01-15T02:20:39;70.00;;;18.38;;
27201;SDS011;14717;46.924;15.474;2024-01-15T02:23:11;49.95;;;18.10;;
27201;SDS011;14717;46.924;15.474;2024-01-15T02:25:41;57.03;;;18.55;;
27201;SDS011;14717;46.924;15.474;2024-01-15T02:30:38;43.67;;;15.02;;
27201;SDS011;14717;46.924;15.474;2024-01-15T02:33:04;34.22;;;12.43;;
27201;SDS011;14717;46.924;15.474;2024-01-15T02:35:30;47.33;;;17.75;;
27201;SDS011;14717;46.924;15.474;2024-01-15T02:37:55;46.63;;;16.52;;
27201;SDS011;14717;46.924;15.474;2024-01-15T02:40:20;51.85;;;18.08;;
27201;SDS011;14717;46.924;15.474;2024-01-15T02:42:46;43.13;;;17.20;;
27201;SDS011;14717;46.924;15.474;2024-01-15T02:45:11;53.17;;;19.23;;
27201;SDS011;14717;46.924;15.474;2024-01-15T02:47:36;60.42;;;19.70;;
27201;SDS011;14717;46.924;15.474;2024-01-15T02:50:02;55.05;;;20.30;;
27201;SDS011;14717;46.924;15.474;2024-01-15T02:52:27;49.20;;;19.45;;
27201;SDS011;14717;46.924;15.474;2024-01-15T02:54:53;53.80;;;18.55;;
27201;SDS011;14717;46.924;15.474;2024-01-15T02:57:18;44.08;;;16.85;;
27201;SDS011;14717;46.924;15.474;2024-01-15T02:59:43;44.05;;;17.02;;
27201;SDS011;14717;46.924;15.474;2024-01-15T03:02:09;45.97;;;17.20;;
27201;SDS011;14717;46.924;15.474;2024-01-15T03:04:34;40.25;;;16.83;;
27201;SDS011;14717;46.924;15.474;2024-01-15T03:06:59;42.53;;;15.23;;
27201;SDS011;14717;46.924;15.474;2024-01-15T03:09:25;39.47;;;15.27;;
27201;SDS011;14717;46.924;15.474;2024-01-15T03:11:50;43.17;;;15.45;;
27201;SDS011;14717;46.924;15.474;2024-01-15T03:14:15;36.47;;;14.88;;
27201;SDS011;14717;46.924;15.474;2024-01-15T03:16:41;52.20;;;17.33;;
27201;SDS011;14717;46.924;15.474;2024-01-15T03:19:06;46.45;;;15.23;;
27201;SDS011;14717;46.924;15.474;2024-01-15T03:21:32;40.28;;;15.60;;
27201;SDS011;14717;46.924;15.474;2024-01-15T03:23:57;40.25;;;15.82;;
27201;SDS011;14717;46.924;15.474;2024-01-15T03:26:22;42.67;;;15.93;;
27201;SDS011;14717;46.924;15.474;2024-01-15T03:28:48;43.50;;;15.82;;
27201;SDS011;14717;46.924;15.474;2024-01-15T03:31:13;47.03;;;16.63;;
27201;SDS011;14717;46.924;15.474;2024-01-15T03:33:39;45.83;;;17.33;;
27201;SDS011;14717;46.924;15.474;2024-01-15T03:36:04;46.90;;;16.70;;
27201;SDS011;14717;46.924;15.474;2024-01-15T03:38:30;46.95;;;18.50;;
27201;SDS011;14717;46.924;15.474;2024-01-15T03:40:55;51.28;;;19.17;;
27201;SDS011;14717;46.924;15.474;2024-01-15T03:43:21;49.50;;;18.33;;
27201;SDS011;14717;46.924;15.474;2024-01-15T03:45:46;50.72;;;17.50;;
27201;SDS011;14717;46.924;15.474;2024-01-15T03:48:11;56.10;;;19.05;;
27201;SDS011;14717;46.924;15.474;2024-01-15T03:50:37;42.88;;;17.15;;
27201;SDS011;14717;46.924;15.474;2024-01-15T03:53:02;55.58;;;19.23;;
27201;SDS011;14717;46.924;15.474;2024-01-15T03:55:27;48.97;;;18.05;;
27201;SDS011;14717;46.924;15.474;2024-01-15T03:57:53;52.80;;;18.63;;
27201;SDS011;14717;46.924;15.474;2024-01-15T04:00:18;49.40;;;17.88;;
27201;SDS011;14717;46.924;15.474;2024-01-15T04:02:44;55.30;;;19.40;;
27201;SDS011;14717;46.924;15.474;2024-01-15T04:05:09;51.75;;;18.10;;
27201;SDS011;14717;46.924;15.474;2024-01-15T04:07:35;50.15;;;17.70;;
27201;SDS011;14717;46.924;15.474;2024-01-15T04:10:00;53.78;;;18.75;;
27201;SDS011;14717;46.924;15.474;2024-01-15T04:12:26;49.25;;;18.55;;
27201;SDS011;14717;46.924;15.474;2024-01-15T04:14:51;48.22;;;17.35;;
27201;SDS011;14717;46.924;15.474;2024-01-15T04:17:16;52.13;;;18.25;;
27201;SDS011;14717;46.924;15.474;2024-01-15T04:19:45;46.13;;;16.70;;
27201;SDS011;14717;46.924;15.474;2024-01-15T04:22:12;45.78;;;17.17;;
27201;SDS011;14717;46.924;15.474;2024-01-15T04:24:38;49.40;;;18.25;;
27201;SDS011;14717;46.924;15.474;2024-01-15T04:27:04;52.20;;;18.67;;
27201;SDS011;14717;46.924;15.474;2024-01-15T04:29:29;53.95;;;17.50;;
27201;SDS011;14717;46.924;15.474;2024-01-15T04:31:54;51.15;;;17.42;;
27201;SDS011;14717;46.924;15.474;2024-01-15T04:34:20;68.63;;;23.45;;
27201;SDS011;14717;46.924;15.474;2024-01-15T04:36:45;57.83;;;23.00;;
27201;SDS011;14717;46.924;15.474;2024-01-15T04:39:10;45.22;;;16.92;;
27201;SDS011;14717;46.924;15.474;2024-01-15T04:41:36;46.10;;;17.55;;
27201;SDS011;14717;46.924;15.474;2024-01-15T04:44:02;46.70;;;17.67;;
27201;SDS011;14717;46.924;15.474;2024-01-15T04:46:28;51.00;;;17.63;;
27201;SDS011;14717;46.924;15.474;2024-01-15T04:48:53;50.55;;;18.52;;
27201;SDS011;14717;46.924;15.474;2024-01-15T04:51:18;50.60;;;18.30;;
27201;SDS011;14717;46.924;15.474;2024-01-15T04:53:44;50.65;;;18.13;;
27201;SDS011;14717;46.924;15.474;2024-01-15T04:56:09;53.95;;;18.67;;
27201;SDS011;14717;46.924;15.474;2024-01-15T04:58:35;50.20;;;18.20;;
27201;SDS011;14717;46.924;15.474;2024-01-15T05:01:00;46.72;;;18.70;;
27201;SDS011;14717;46.924;15.474;2024-01-15T05:03:26;48.65;;;19.00;;
27201;SDS011;14717;46.924;15.474;2024-01-15T05:05:51;55.53;;;18.73;;
27201;SDS011;14717;46.924;15.474;2024-01-15T05:08:16;45.67;;;18.83;;
27201;SDS011;14717;46.924;15.474;2024-01-15T05:10:42;51.20;;;17.08;;
27201;SDS011;14717;46.924;15.474;2024-01-15T05:13:07;48.72;;;18.52;;
27201;SDS011;14717;46.924;15.474;2024-01-15T05:15:32;52.33;;;17.95;;
27201;SDS011;14717;46.924;15.474;2024-01-15T05:17:58;47.83;;;17.35;;
27201;SDS011;14717;46.924;15.474;2024-01-15T05:20:23;48.33;;;17.23;;
27201;SDS011;14717;46.924;15.474;2024-01-15T05:22:49;49.08;;;18.10;;
27201;SDS011;14717;46.924;15.474;2024-01-15T05:25:14;56.70;;;19.17;;
27201;SDS011;14717;46.924;15.474;2024-01-15T05:27:39;52.45;;;17.35;;
27201;SDS011;14717;46.924;15.474;2024-01-15T05:30:05;46.85;;;16.98;;
27201;SDS011;14717;46.924;15.474;2024-01-15T05:32:31;46.38;;;17.20;;
27201;SDS011;14717;46.924;15.474;2024-01-15T05:34:57;43.08;;;16.95;;
27201;SDS011;14717;46.924;15.474;2024-01-15T05:37:22;48.85;;;18.92;;
27201;SDS011;14717;46.924;15.474;2024-01-15T05:39:47;51.25;;;17.88;;
27201;SDS011;14717;46.924;15.474;2024-01-15T05:42:13;52.55;;;17.10;;
27201;SDS011;14717;46.924;15.474;2024-01-15T05:44:38;52.28;;;18.02;;
27201;SDS011;14717;46.924;15.474;2024-01-15T05:47:03;47.85;;;17.27;;
27201;SDS011;14717;46.924;15.474;2024-01-15T05:49:29;45.92;;;17.65;;
27201;SDS011;14717;46.924;15.474;2024-01-15T05:51:55;47.85;;;16.75;;
27201;SDS011;14717;46.924;15.474;2024-01-15T05:54:20;52.88;;;18.30;;
27201;SDS011;14717;46.924;15.474;2024-01-15T05:56:45;52.70;;;19.20;;
27201;SDS011;14717;46.924;15.474;2024-01-15T05:59:11;49.38;;;19.55;;
27201;SDS011;14717;46.924;15.474;2024-01-15T06:01:36;54.40;;;20.83;;
27201;SDS011;14717;46.924;15.474;2024-01-15T06:04:02;49.45;;;17.10;;
27201;SDS011;14717;46.924;15.474;2024-01-15T06:06:27;48.88;;;18.08;;
27201;SDS011;14717;46.924;15.474;2024-01-15T06:08:52;48.40;;;18.88;;
27201;SDS011;14717;46.924;15.474;2024-01-15T06:11:18;53.97;;;17.98;;
27201;SDS011;14717;46.924;15.474;2024-01-15T06:13:43;48.22;;;17.45;;
27201;SDS011;14717;46.924;15.474;2024-01-15T06:16:15;47.42;;;18.42;;
27201;SDS011;14717;46.924;15.474;2024-01-15T06:18:45;52.80;;;17.63;;
27201;SDS011;14717;46.924;15.474;2024-01-15T06:21:10;45.47;;;17.52;;
27201;SDS011;14717;46.924;15.474;2024-01-15T06:23:37;49.90;;;18.58;;
27201;SDS011;14717;46.924;15.474;2024-01-15T06:26:03;50.90;;;17.88;;
27201;SDS011;14717;46.924;15.474;2024-01-15T06:28:29;49.20;;;17.60;;
27201;SDS011;14717;46.924;15.474;2024-01-15T06:30:54;47.97;;;17.13;;
27201;SDS011;14717;46.924;15.474;2024-01-15T06:33:19;47.88;;;17.80;;
27201;SDS011;14717;46.924;15.474;2024-01-15T06:35:45;48.28;;;18.08;;
27201;SDS011;14717;46.924;15.474;2024-01-15T06:38:10;41.45;;;16.63;;
27201;SDS011;14717;46.924;15.474;2024-01-15T06:40:35;48.95;;;18.60;;
27201;SDS011;14717;46.924;15.474;2024-01-15T06:43:01;45.15;;;17.27;;
27201;SDS011;14717;46.924;15.474;2024-01-15T06:45:26;54.42;;;18.38;;
27201;SDS011;14717;46.924;15.474;2024-01-15T06:47:51;45.97;;;16.40;;
27201;SDS011;14717;46.924;15.474;2024-01-15T06:50:17;53.97;;;17.83;;
27201;SDS011;14717;46.924;15.474;2024-01-15T06:52:42;43.72;;;20.08;;
27201;SDS011;14717;46.924;15.474;2024-01-15T06:55:08;44.83;;;18.13;;
27201;SDS011;14717;46.924;15.474;2024-01-15T06:57:33;44.15;;;18.33;;
27201;SDS011;14717;46.924;15.474;2024-01-15T06:59:58;48.85;;;17.23;;
27201;SDS011;14717;46.924;15.474;2024-01-15T07:02:24;46.42;;;17.38;;
27201;SDS011;14717;46.924;15.474;2024-01-15T07:04:49;47.13;;;16.65;;
27201;SDS011;14717;46.924;15.474;2024-01-15T07:07:14;52.20;;;17.77;;
27201;SDS011;14717;46.924;15.474;2024-01-15T07:09:40;55.83;;;19.00;;
27201;SDS011;14717;46.924;15.474;2024-01-15T07:12:06;52.08;;;18.45;;
27201;SDS011;14717;46.924;15.474;2024-01-15T07:14:31;50.13;;;18.38;;
27201;SDS011;14717;46.924;15.474;2024-01-15T07:16:56;45.42;;;18.33;;
27201;SDS011;14717;46.924;15.474;2024-01-15T07:19:22;49.15;;;18.33;;
27201;SDS011;14717;46.924;15.474;2024-01-15T07:21:47;52.42;;;18.75;;
27201;SDS011;14717;46.924;15.474;2024-01-15T07:24:12;49.03;;;19.65;;
27201;SDS011;14717;46.924;15.474;2024-01-15T07:26:38;52.25;;;17.85;;
27201;SDS011;14717;46.924;15.474;2024-01-15T07:29:03;47.58;;;17.67;;
27201;SDS011;14717;46.924;15.474;2024-01-15T07:31:29;46.10;;;17.02;;
27201;SDS011;14717;46.924;15.474;2024-01-15T07:33:54;50.35;;;17.75;;
27201;SDS011;14717;46.924;15.474;2024-01-15T07:36:20;47.40;;;17.92;;
27201;SDS011;14717;46.924;15.474;2024-01-15T07:38:45;53.45;;;19.95;;
27201;SDS011;14717;46.924;15.474;2024-01-15T07:41:12;60.38;;;19.90;;
27201;SDS011;14717;46.924;15.474;2024-01-15T07:43:38;51.15;;;20.13;;
27201;SDS011;14717;46.924;15.474;2024-01-15T07:46:04;59.20;;;20.67;;
27201;SDS011;14717;46.924;15.474;2024-01-15T07:48:29;58.38;;;20.83;;
27201;SDS011;14717;46.924;15.474;2024-01-15T07:50:54;53.80;;;20.88;;
27201;SDS011;14717;46.924;15.474;2024-01-15T07:53:20;61.03;;;22.00;;
27201;SDS011;14717;46.924;15.474;2024-01-15T07:55:45;61.63;;;20.38;;
27201;SDS011;14717;46.924;15.474;2024-01-15T07:58:11;50.25;;;19.90;;
27201;SDS011;14717;46.924;15.474;2024-01-15T08:00:36;52.95;;;19.27;;
27201;SDS011;14717;46.924;15.474;2024-01-15T08:03:02;55.45;;;19.42;;
27201;SDS011;14717;46.924;15.474;2024-01-15T08:05:27;52.25;;;19.65;;
27201;SDS011;14717;46.924;15.474;2024-01-15T08:07:53;53.50;;;20.40;;
27201;SDS011;14717;46.924;15.474;2024-01-15T08:10:18;52.80;;;18.42;;
27201;SDS011;14717;46.924;15.474;2024-01-15T08:12:44;54.60;;;20.02;;
27201;SDS011;14717;46.924;15.474;2024-01-15T08:15:09;50.97;;;18.45;;
27201;SDS011;14717;46.924;15.474;2024-01-15T08:17:35;42.85;;;18.40;;
27201;SDS011;14717;46.924;15.474;2024-01-15T08:20:00;49.75;;;17.70;;
27201;SDS011;14717;46.924;15.474;2024-01-15T08:22:26;45.00;;;18.70;;
27201;SDS011;14717;46.924;15.474;2024-01-15T08:24:51;51.80;;;18.92;;
27201;SDS011;14717;46.924;15.474;2024-01-15T08:27:17;49.92;;;19.38;;
27201;SDS011;14717;46.924;15.474;2024-01-15T08:29:42;58.38;;;20.48;;
27201;SDS011;14717;46.924;15.474;2024-01-15T08:32:08;59.20;;;20.05;;
27201;SDS011;14717;46.924;15.474;2024-01-15T08:34:38;52.85;;;18.58;;
27201;SDS011;14717;46.924;15.474;2024-01-15T08:37:04;52.17;;;20.52;;
27201;SDS011;14717;46.924;15.474;2024-01-15T08:39:29;51.92;;;18.27;;
27201;SDS011;14717;46.924;15.474;2024-01-15T08:41:54;35.15;;;14.93;;
27201;SDS011;14717;46.924;15.474;2024-01-15T08:44:20;52.65;;;20.45;;
27201;SDS011;14717;46.924;15.474;2024-01-15T08:46:45;53.38;;;19.60;;
27201;SDS011;14717;46.924;15.474;2024-01-15T08:49:10;49.40;;;18.92;;
27201;SDS011;14717;46.924;15.474;2024-01-15T08:51:36;53.70;;;19.95;;
27201;SDS011;14717;46.924;15.474;2024-01-15T08:56:28;52.53;;;18.93;;
27201;SDS011;14717;46.924;15.474;2024-01-15T08:58:53;37.83;;;15.77;;
27201;SDS011;14717;46.924;15.474;2024-01-15T09:01:19;49.08;;;19.42;;
27201;SDS011;14717;46.924;15.474;2024-01-15T09:03:44;46.83;;;19.13;;
27201;SDS011;14717;46.924;15.474;2024-01-15T09:06:10;41.40;;;16.90;;
27201;SDS011;14717;46.924;15.474;2024-01-15T09:08:35;43.85;;;16.52;;
27201;SDS011;14717;46.924;15.474;2024-01-15T09:11:01;46.92;;;17.25;;
27201;SDS011;14717;46.924;15.474;2024-01-15T09:13:28;39.90;;;16.48;;
27201;SDS011;14717;46.924;15.474;2024-01-15T09:15:53;43.85;;;16.42;;
27201;SDS011;14717;46.924;15.474;2024-01-15T09:18:18;46.15;;;17.45;;
27201;SDS011;14717;46.924;15.474;2024-01-15T09:20:44;38.47;;;16.75;;
27201;SDS011;14717;46.924;15.474;2024-01-15T09:23:09;46.65;;;18.17;;
27201;SDS011;14717;46.924;15.474;2024-01-15T09:25:34;43.28;;;17.05;;
27201;SDS011;14717;46.924;15.474;2024-01-15T09:28:00;40.17;;;15.70;;
27201;SDS011;14717;46.924;15.474;2024-01-15T09:30:25;38.08;;;15.02;;
27201;SDS011;14717;46.924;15.474;2024-01-15T09:32:50;38.58;;;15.98;;
27201;SDS011;14717;46.924;15.474;2024-01-15T09:35:16;41.80;;;16.60;;
27201;SDS011;14717;46.924;15.474;2024-01-15T09:37:41;36.40;;;15.77;;
27201;SDS011;14717;46.924;15.474;2024-01-15T09:40:08;42.65;;;17.17;;
27201;SDS011;14717;46.924;15.474;2024-01-15T09:42:38;44.75;;;17.88;;
27201;SDS011;14717;46.924;15.474;2024-01-15T09:45:03;50.70;;;18.75;;
27201;SDS011;14717;46.924;15.474;2024-01-15T09:47:29;46.00;;;16.83;;
27201;SDS011;14717;46.924;15.474;2024-01-15T09:49:55;42.42;;;17.75;;
27201;SDS011;14717;46.924;15.474;2024-01-15T09:52:24;50.70;;;18.70;;
27201;SDS011;14717;46.924;15.474;2024-01-15T09:54:50;51.30;;;18.67;;
27201;SDS011;14717;46.924;15.474;2024-01-15T09:57:16;42.10;;;16.95;;
27201;SDS011;14717;46.924;15.474;2024-01-15T09:59:42;47.97;;;20.10;;
27201;SDS011;14717;46.924;15.474;2024-01-15T10:02:08;44.42;;;18.63;;
27201;SDS011;14717;46.924;15.474;2024-01-15T10:04:39;44.42;;;16.77;;
27201;SDS011;14717;46.924;15.474;2024-01-15T10:07:04;46.78;;;19.13;;
27201;SDS011;14717;46.924;15.474;2024-01-15T10:09:32;46.08;;;17.25;;
27201;SDS011;14717;46.924;15.474;2024-01-15T10:11:57;42.33;;;18.35;;
27201;SDS011;14717;46.924;15.474;2024-01-15T10:14:23;43.65;;;17.48;;
27201;SDS011;14717;46.924;15.474;2024-01-15T10:16:48;40.55;;;16.85;;
27201;SDS011;14717;46.924;15.474;2024-01-15T10:19:13;40.17;;;16.42;;
27201;SDS011;14717;46.924;15.474;2024-01-15T10:21:39;42.28;;;17.30;;
27201;SDS011;14717;46.924;15.474;2024-01-15T10:24:04;42.47;;;17.67;;
27201;SDS011;14717;46.924;15.474;2024-01-15T10:26:30;48.13;;;17.70;;
27201;SDS011;14717;46.924;15.474;2024-01-15T10:28:58;43.65;;;17.40;;
27201;SDS011;14717;46.924;15.474;2024-01-15T10:31:23;40.22;;;16.85;;
27201;SDS011;14717;46.924;15.474;2024-01-15T10:33:50;41.33;;;18.30;;
27201;SDS011;14717;46.924;15.474;2024-01-15T10:36:16;43.60;;;16.65;;
27201;SDS011;14717;46.924;15.474;2024-01-15T10:38:45;46.83;;;16.17;;
27201;SDS011;14717;46.924;15.474;2024-01-15T10:41:11;43.05;;;17.58;;
27201;SDS011;14717;46.924;15.474;2024-01-15T10:43:36;35.40;;;16.08;;
27201;SDS011;14717;46.924;15.474;2024-01-15T10:46:02;44.28;;;16.73;;
27201;SDS011;14717;46.924;15.474;2024-01-15T10:48:28;41.08;;;14.93;;
27201;SDS011;14717;46.924;15.474;2024-01-15T10:50:55;41.22;;;16.02;;
27201;SDS011;14717;46.924;15.474;2024-01-15T10:53:21;37.42;;;15.20;;
27201;SDS011;14717;46.924;15.474;2024-01-15T10:55:48;46.08;;;16.80;;
27201;SDS011;14717;46.924;15.474;2024-01-15T10:58:15;41.03;;;15.30;;
27201;SDS011;14717;46.924;15.474;2024-01-15T11:00:42;35.17;;;15.40;;
27201;SDS011;14717;46.924;15.474;2024-01-15T11:03:08;41.25;;;15.25;;
27201;SDS011;14717;46.924;15.474;2024-01-15T11:05:43;33.47;;;15.25;;
27201;SDS011;14717;46.924;15.474;2024-01-15T11:08:09;35.08;;;14.02;;
27201;SDS011;14717;46.924;15.474;2024-01-15T11:10:44;30.13;;;12.25;;
27201;SDS011;14717;46.924;15.474;2024-01-15T11:15:56;27.83;;;12.25;;
27201;SDS011;14717;46.924;15.474;2024-01-15T11:18:22;28.90;;;11.98;;
27201;SDS011;14717;46.924;15.474;2024-01-15T11:23:54;29.98;;;12.75;;
27201;SDS011;14717;46.924;15.474;2024-01-15T11:26:34;31.90;;;13.02;;
27201;SDS011;14717;46.924;15.474;2024-01-15T11:29:01;32.60;;;14.15;;
27201;SDS011;14717;46.924;15.474;2024-01-15T11:34:06;35.00;;;13.85;;
27201;SDS011;14717;46.924;15.474;2024-01-15T11:41:58;21.70;;;9.60;;
27201;SDS011;14717;46.924;15.474;2024-01-15T11:44:25;23.25;;;9.90;;
27201;SDS011;14717;46.924;15.474;2024-01-15T11:47:02;20.77;;;9.13;;
27201;SDS011;14717;46.924;15.474;2024-01-15T11:52:12;21.80;;;8.60;;
27201;SDS011;14717;46.924;15.474;2024-01-15T11:54:42;16.02;;;7.85;;
27201;SDS011;14717;46.924;15.474;2024-01-15T11:57:16;18.40;;;7.60;;
27201;SDS011;14717;46.924;15.474;2024-01-15T11:59:47;15.88;;;6.88;;
27201;SDS011;14717;46.924;15.474;2024-01-15T12:02:13;17.33;;;7.68;;
27201;SDS011;14717;46.924;15.474;2024-01-15T12:04:38;18.10;;;7.75;;
27201;SDS011;14717;46.924;15.474;2024-01-15T12:07:05;17.75;;;6.78;;
27201;SDS011;14717;46.924;15.474;2024-01-15T12:09:30;15.48;;;6.95;;
27201;SDS011;14717;46.924;15.474;2024-01-15T12:11:57;16.95;;;7.75;;
27201;SDS011;14717;46.924;15.474;2024-01-15T12:14:30;16.95;;;7.30;;
27201;SDS011;14717;46.924;15.474;2024-01-15T12:16:56;14.82;;;7.18;;
27201;SDS011;14717;46.924;15.474;2024-01-15T12:19:22;18.27;;;7.32;;
27201;SDS011;14717;46.924;15.474;2024-01-15T12:21:48;17.70;;;7.60;;
27201;SDS011;14717;46.924;15.474;2024-01-15T12:24:16;14.80;;;6.70;;
27201;SDS011;14717;46.924;15.474;2024-01-15T12:26:42;19.75;;;7.47;;
27201;SDS011;14717;46.924;15.474;2024-01-15T12:29:07;16.38;;;7.53;;
27201;SDS011;14717;46.924;15.474;2024-01-15T12:31:33;17.75;;;7.97;;
27201;SDS011;14717;46.924;15.474;2024-01-15T12:36:26;17.23;;;7.53;;
27201;SDS011;14717;46.924;15.474;2024-01-15T12:38:52;15.77;;;7.63;;
27201;SDS011;14717;46.924;15.474;2024-01-15T12:41:17;15.52;;;7.32;;
27201;SDS011;14717;46.924;15.474;2024-01-15T12:43:43;14.50;;;7.60;;
27201;SDS011;14717;46.924;15.474;2024-01-15T12:46:08;19.30;;;7.63;;
27201;SDS011;14717;46.924;15.474;2024-01-15T12:48:34;20.35;;;7.10;;
27201;SDS011;14717;46.924;15.474;2024-01-15T12:50:59;20.92;;;6.88;;
27201;SDS011;14717;46.924;15.474;2024-01-15T12:53:26;13.32;;;6.13;;
27201;SDS011;14717;46.924;15.474;2024-01-15T12:55:51;16.10;;;7.22;;
27201;SDS011;14717;46.924;15.474;2024-01-15T12:58:17;11.88;;;5.97;;
27201;SDS011;14717;46.924;15.474;2024-01-15T13:00:42;14.13;;;6.28;;
27201;SDS011;14717;46.924;15.474;2024-01-15T13:03:08;13.30;;;5.78;;
27201;SDS011;14717;46.924;15.474;2024-01-15T13:05:33;13.80;;;5.93;;
27201;SDS011;14717;46.924;15.474;2024-01-15T13:07:59;13.40;;;6.57;;
27201;SDS011;14717;46.924;15.474;2024-01-15T13:10:24;15.23;;;6.80;;
27201;SDS011;14717;46.924;15.474;2024-01-15T13:12:50;12.85;;;6.57;;
27201;SDS011;14717;46.924;15.474;2024-01-15T13:15:15;15.18;;;6.75;;
27201;SDS011;14717;46.924;15.474;2024-01-15T13:17:41;13.82;;;6.82;;
27201;SDS011;14717;46.924;15.474;2024-01-15T13:20:07;12.13;;;6.18;;
27201;SDS011;14717;46.924;15.474;2024-01-15T13:22:33;14.35;;;6.43;;
27201;SDS011;14717;46.924;15.474;2024-01-15T13:24:59;15.73;;;6.97;;
27201;SDS011;14717;46.924;15.474;2024-01-15T13:27:25;13.00;;;6.68;;
27201;SDS011;14717;46.924;15.474;2024-01-15T13:29:50;12.75;;;6.47;;
27201;SDS011;14717;46.924;15.474;2024-01-15T13:32:17;13.15;;;6.30;;
27201;SDS011;14717;46.924;15.474;2024-01-15T13:34:48;13.15;;;6.10;;
27201;SDS011;14717;46.924;15.474;2024-01-15T13:37:14;11.95;;;5.85;;
27201;SDS011;14717;46.924;15.474;2024-01-15T13:39:39;11.45;;;6.25;;
27201;SDS011;14717;46.924;15.474;2024-01-15T13:42:04;11.98;;;6.30;;
27201;SDS011;14717;46.924;15.474;2024-01-15T13:44:30;14.23;;;5.90;;
27201;SDS011;14717;46.924;15.474;2024-01-15T13:46:55;13.90;;;6.28;;
27201;SDS011;14717;46.924;15.474;2024-01-15T13:49:22;12.63;;;5.25;;
27201;SDS011;14717;46.924;15.474;2024-01-15T13:51:47;12.05;;;6.50;;
27201;SDS011;14717;46.924;15.474;2024-01-15T13:54:13;14.65;;;6.68;;
27201;SDS011;14717;46.924;15.474;2024-01-15T13:56:38;11.77;;;6.63;;
27201;SDS011;14717;46.924;15.474;2024-01-15T13:59:03;17.25;;;7.47;;
27201;SDS011;14717;46.924;15.474;2024-01-15T14:01:30;15.52;;;6.32;;
27201;SDS011;14717;46.924;15.474;2024-01-15T14:03:56;17.08;;;7.40;;
27201;SDS011;14717;46.924;15.474;2024-01-15T14:06:21;15.93;;;7.78;;
27201;SDS011;14717;46.924;15.474;2024-01-15T14:08:46;14.32;;;6.57;;
27201;SDS011;14717;46.924;15.474;2024-01-15T14:11:12;17.08;;;8.02;;
27201;SDS011;14717;46.924;15.474;2024-01-15T14:13:37;15.30;;;7.03;;
27201;SDS011;14717;46.924;15.474;2024-01-15T14:16:03;13.70;;;7.07;;
27201;SDS011;14717;46.924;15.474;2024-01-15T14:18:28;15.50;;;7.53;;
27201;SDS011;14717;46.924;15.474;2024-01-15T14:20:53;14.02;;;7.40;;
27201;SDS011;14717;46.924;15.474;2024-01-15T14:23:19;15.35;;;7.28;;
27201;SDS011;14717;46.924;15.474;2024-01-15T14:25:45;15.55;;;6.97;;
27201;SDS011;14717;46.924;15.474;2024-01-15T14:28:11;16.73;;;7.43;;